sensor_id;sensor_type;location;lat;lon;timestamp;P1;durP1;ratioP1;P2;durP2;ratioP2
75608;SDS011;64194;51.044;13.780;2022-11-04T00:01:09;13.63;;;7.53;;
75608;SDS011;64194;51.044;13.780;2022-11-04T00:05:11;13.50;;;7.18;;
75608;SDS011;64194;51.044;13.780;2022-11-04T00:09:31;14.27;;;7.15;;
75608;SDS011;64194;51.044;13.780;2022-11-04T00:13:32;15.52;;;7.78;;
75608;SDS011;64194;51.044;13.780;2022-11-04T00:17:34;15.32;;;8.00;;
75608;SDS011;64194;51.044;13.780;2022-11-04T00:21:35;14.32;;;6.88;;
75608;SDS011;64194;51.044;13.780;2022-11-04T00:25:55;16.73;;;7.97;;
75608;SDS011;64194;51.044;13.780;2022-11-04T00:30:15;17.33;;;7.97;;
75608;SDS011;64194;51.044;13.780;2022-11-04T00:34:17;16.85;;;8.05;;
75608;SDS011;64194;51.044;13.780;2022-11-04T00:38:19;13.77;;;7.68;;
75608;SDS011;64194;51.044;13.780;2022-11-04T00:42:20;16.25;;;8.95;;
75608;SDS011;64194;51.044;13.780;2022-11-04T00:46:22;17.02;;;8.85;;
75608;SDS011;64194;51.044;13.780;2022-11-04T00:50:24;18.80;;;9.82;;
75608;SDS011;64194;51.044;13.780;2022-11-04T00:54:25;16.48;;;9.38;;
75608;SDS011;64194;51.044;13.780;2022-11-04T00:58:28;17.48;;;9.52;;
75608;SDS011;64194;51.044;13.780;2022-11-04T01:02:30;18.80;;;10.73;;
75608;SDS011;64194;51.044;13.780;2022-11-04T01:06:32;22.52;;;10.77;;
75608;SDS011;64194;51.044;13.780;2022-11-04T01:10:34;17.20;;;9.35;;
75608;SDS011;64194;51.044;13.780;2022-11-04T01:14:36;18.98;;;10.85;;
75608;SDS011;64194;51.044;13.780;2022-11-04T01:18:38;20.63;;;11.45;;
75608;SDS011;64194;51.044;13.780;2022-11-04T01:22:40;17.48;;;10.95;;
75608;SDS011;64194;51.044;13.780;2022-11-04T01:26:42;20.77;;;11.13;;
75608;SDS011;64194;51.044;13.780;2022-11-04T01:30:43;19.90;;;11.88;;
75608;SDS011;64194;51.044;13.780;2022-11-04T01:34:45;22.90;;;12.05;;
75608;SDS011;64194;51.044;13.780;2022-11-04T01:38:47;26.10;;;13.05;;
75608;SDS011;64194;51.044;13.780;2022-11-04T01:42:49;21.65;;;12.63;;
75608;SDS011;64194;51.044;13.780;2022-11-04T01:46:51;25.35;;;13.38;;
75608;SDS011;64194;51.044;13.780;2022-11-04T01:50:54;21.75;;;13.45;;
75608;SDS011;64194;51.044;13.780;2022-11-04T01:54:58;22.95;;;13.05;;
75608;SDS011;64194;51.044;13.780;2022-11-04T01:59:06;23.30;;;13.02;;
75608;SDS011;64194;51.044;13.780;2022-11-04T02:03:14;27.75;;;13.57;;
75608;SDS011;64194;51.044;13.780;2022-11-04T02:07:23;21.20;;;12.90;;
75608;SDS011;64194;51.044;13.780;2022-11-04T02:11:25;23.05;;;13.18;;
75608;SDS011;64194;51.044;13.780;2022-11-04T02:20:28;26.75;;;15.05;;
75608;SDS011;64194;51.044;13.780;2022-11-04T02:24:41;25.33;;;14.63;;
75608;SDS011;64194;51.044;13.780;2022-11-04T02:29:07;28.73;;;14.18;;
75608;SDS011;64194;51.044;13.780;2022-11-04T02:33:33;25.05;;;13.05;;
75608;SDS011;64194;51.044;13.780;2022-11-04T02:55:41;28.75;;;15.52;;
75608;SDS011;64194;51.044;13.780;2022-11-04T03:08:16;25.92;;;15.40;;
75608;SDS011;64194;51.044;13.780;2022-11-04T03:12:28;26.80;;;14.20;;
75608;SDS011;64194;51.044;13.780;2022-11-04T03:20:45;27.40;;;15.52;;
75608;SDS011;64194;51.044;13.780;2022-11-04T03:24:49;30.13;;;16.88;;
75608;SDS011;64194;51.044;13.780;2022-11-04T03:29:02;26.45;;;15.50;;
75608;SDS011;64194;51.044;13.780;2022-11-04T03:37:41;27.08;;;15.48;;
75608;SDS011;64194;51.044;13.780;2022-11-04T03:41:48;28.58;;;15.32;;
75608;SDS011;64194;51.044;13.780;2022-11-04T03:45:53;26.50;;;14.43;;
75608;SDS011;64194;51.044;13.780;2022-11-04T03:50:03;25.73;;;13.68;;
75608;SDS011;64194;51.044;13.780;2022-11-04T03:54:10;23.98;;;14.40;;
75608;SDS011;64194;51.044;13.780;2022-11-04T03:58:31;23.85;;;14.23;;
75608;SDS011;64194;51.044;13.780;2022-11-04T04:07:03;23.27;;;13.90;;
75608;SDS011;64194;51.044;13.780;2022-11-04T04:11:28;26.17;;;14.52;;
75608;SDS011;64194;51.044;13.780;2022-11-04T04:15:41;25.45;;;14.90;;
75608;SDS011;64194;51.044;13.780;2022-11-04T04:19:48;26.08;;;15.70;;
75608;SDS011;64194;51.044;13.780;2022-11-04T04:23:54;26.70;;;15.30;;
75608;SDS011;64194;51.044;13.780;2022-11-04T04:28:16;31.35;;;16.77;;
75608;SDS011;64194;51.044;13.780;2022-11-04T04:32:20;29.10;;;16.33;;
75608;SDS011;64194;51.044;13.780;2022-11-04T04:36:24;32.50;;;17.83;;
75608;SDS011;64194;51.044;13.780;2022-11-04T04:40:27;27.02;;;15.50;;
75608;SDS011;64194;51.044;13.780;2022-11-04T04:44:49;30.65;;;17.02;;
75608;SDS011;64194;51.044;13.780;2022-11-04T04:49:03;29.27;;;17.98;;
75608;SDS011;64194;51.044;13.780;2022-11-04T04:53:08;29.00;;;17.02;;
75608;SDS011;64194;51.044;13.780;2022-11-04T04:57:12;32.00;;;17.23;;
75608;SDS011;64194;51.044;13.780;2022-11-04T05:01:13;28.80;;;16.52;;
75608;SDS011;64194;51.044;13.780;2022-11-04T05:05:15;33.38;;;19.40;;
75608;SDS011;64194;51.044;13.780;2022-11-04T05:09:18;38.67;;;21.27;;
75608;SDS011;64194;51.044;13.780;2022-11-04T05:13:19;41.30;;;22.30;;
75608;SDS011;64194;51.044;13.780;2022-11-04T05:17:27;45.67;;;22.10;;
75608;SDS011;64194;51.044;13.780;2022-11-04T05:21:29;44.13;;;24.33;;
75608;SDS011;64194;51.044;13.780;2022-11-04T05:25:30;50.25;;;26.63;;
75608;SDS011;64194;51.044;13.780;2022-11-04T05:29:32;52.65;;;27.42;;
75608;SDS011;64194;51.044;13.780;2022-11-04T05:33:33;47.50;;;25.25;;
75608;SDS011;64194;51.044;13.780;2022-11-04T05:37:35;52.00;;;26.70;;
75608;SDS011;64194;51.044;13.780;2022-11-04T05:41:36;51.80;;;26.08;;
75608;SDS011;64194;51.044;13.780;2022-11-04T05:45:38;52.30;;;25.92;;
75608;SDS011;64194;51.044;13.780;2022-11-04T05:49:40;53.10;;;26.00;;
75608;SDS011;64194;51.044;13.780;2022-11-04T05:53:41;57.95;;;27.58;;
75608;SDS011;64194;51.044;13.780;2022-11-04T05:57:43;48.40;;;26.30;;
75608;SDS011;64194;51.044;13.780;2022-11-04T06:01:45;55.28;;;27.45;;
75608;SDS011;64194;51.044;13.780;2022-11-04T06:05:47;53.20;;;26.60;;
75608;SDS011;64194;51.044;13.780;2022-11-04T06:09:48;54.35;;;27.98;;
75608;SDS011;64194;51.044;13.780;2022-11-04T06:13:50;55.13;;;29.67;;
75608;SDS011;64194;51.044;13.780;2022-11-04T06:17:53;51.22;;;26.08;;
75608;SDS011;64194;51.044;13.780;2022-11-04T06:21:55;51.75;;;25.52;;
75608;SDS011;64194;51.044;13.780;2022-11-04T06:25:57;50.85;;;25.80;;
75608;SDS011;64194;51.044;13.780;2022-11-04T06:29:59;46.58;;;24.15;;
75608;SDS011;64194;51.044;13.780;2022-11-04T06:34:00;48.92;;;24.65;;
75608;SDS011;64194;51.044;13.780;2022-11-04T06:38:02;48.90;;;24.73;;
75608;SDS011;64194;51.044;13.780;2022-11-04T06:42:03;50.05;;;23.45;;
75608;SDS011;64194;51.044;13.780;2022-11-04T06:46:06;46.05;;;25.25;;
75608;SDS011;64194;51.044;13.780;2022-11-04T06:50:24;46.75;;;24.00;;
75608;SDS011;64194;51.044;13.780;2022-11-04T06:54:26;42.90;;;22.00;;
75608;SDS011;64194;51.044;13.780;2022-11-04T06:58:28;46.03;;;24.33;;
75608;SDS011;64194;51.044;13.780;2022-11-04T07:02:30;38.25;;;20.90;;
75608;SDS011;64194;51.044;13.780;2022-11-04T07:06:32;46.13;;;24.88;;
75608;SDS011;64194;51.044;13.780;2022-11-04T07:10:33;44.63;;;22.58;;
75608;SDS011;64194;51.044;13.780;2022-11-04T07:14:35;40.28;;;21.42;;
75608;SDS011;64194;51.044;13.780;2022-11-04T07:18:37;32.83;;;17.67;;
75608;SDS011;64194;51.044;13.780;2022-11-04T07:28:13;29.55;;;16.10;;
75608;SDS011;64194;51.044;13.780;2022-11-04T07:32:15;35.97;;;18.45;;
75608;SDS011;64194;51.044;13.780;2022-11-04T07:36:17;26.80;;;14.88;;
75608;SDS011;64194;51.044;13.780;2022-11-04T07:40:19;23.73;;;12.43;;
75608;SDS011;64194;51.044;13.780;2022-11-04T07:48:49;23.20;;;12.25;;
75608;SDS011;64194;51.044;13.780;2022-11-04T07:52:52;19.65;;;10.65;;
75608;SDS011;64194;51.044;13.780;2022-11-04T08:25:21;20.77;;;11.60;;
75608;SDS011;64194;51.044;13.780;2022-11-04T08:29:23;18.58;;;9.85;;
75608;SDS011;64194;51.044;13.780;2022-11-04T08:33:41;21.80;;;11.25;;
75608;SDS011;64194;51.044;13.780;2022-11-04T08:37:44;16.83;;;8.65;;
75608;SDS011;64194;51.044;13.780;2022-11-04T08:41:45;15.75;;;7.20;;
75608;SDS011;64194;51.044;13.780;2022-11-04T08:45:48;17.83;;;8.50;;
75608;SDS011;64194;51.044;13.780;2022-11-04T08:54:28;18.30;;;9.45;;
75608;SDS011;64194;51.044;13.780;2022-11-04T08:58:29;13.90;;;7.60;;
75608;SDS011;64194;51.044;13.780;2022-11-04T09:02:31;10.15;;;5.72;;
75608;SDS011;64194;51.044;13.780;2022-11-04T09:06:34;12.35;;;5.65;;
75608;SDS011;64194;51.044;13.780;2022-11-04T09:10:44;10.73;;;5.22;;
75608;SDS011;64194;51.044;13.780;2022-11-04T09:14:47;7.43;;;4.20;;
75608;SDS011;64194;51.044;13.780;2022-11-04T09:18:49;8.07;;;4.57;;
75608;SDS011;64194;51.044;13.780;2022-11-04T09:22:50;8.45;;;4.53;;
75608;SDS011;64194;51.044;13.780;2022-11-04T09:26:53;9.95;;;4.80;;
75608;SDS011;64194;51.044;13.780;2022-11-04T09:30:55;9.52;;;4.95;;
75608;SDS011;64194;51.044;13.780;2022-11-04T09:34:56;10.27;;;4.95;;
75608;SDS011;64194;51.044;13.780;2022-11-04T09:38:58;8.63;;;4.45;;
75608;SDS011;64194;51.044;13.780;2022-11-04T09:43:13;9.00;;;4.30;;
75608;SDS011;64194;51.044;13.780;2022-11-04T09:47:29;10.88;;;4.95;;
75608;SDS011;64194;51.044;13.780;2022-11-04T09:51:33;11.15;;;5.43;;
75608;SDS011;64194;51.044;13.780;2022-11-04T09:55:57;10.93;;;5.82;;
75608;SDS011;64194;51.044;13.780;2022-11-04T10:00:02;12.48;;;5.72;;
75608;SDS011;64194;51.044;13.780;2022-11-04T10:04:21;12.43;;;7.05;;
75608;SDS011;64194;51.044;13.780;2022-11-04T10:12:47;12.25;;;5.97;;
75608;SDS011;64194;51.044;13.780;2022-11-04T10:17:19;14.35;;;7.13;;
75608;SDS011;64194;51.044;13.780;2022-11-04T10:26:15;16.23;;;7.82;;
75608;SDS011;64194;51.044;13.780;2022-11-04T10:30:19;15.68;;;7.43;;
75608;SDS011;64194;51.044;13.780;2022-11-04T10:34:26;15.35;;;7.18;;
75608;SDS011;64194;51.044;13.780;2022-11-04T10:38:45;11.63;;;5.97;;
75608;SDS011;64194;51.044;13.780;2022-11-04T10:42:51;10.10;;;5.65;;
75608;SDS011;64194;51.044;13.780;2022-11-04T10:46:57;14.20;;;5.80;;
75608;SDS011;64194;51.044;13.780;2022-11-04T10:51:05;9.05;;;4.78;;
75608;SDS011;64194;51.044;13.780;2022-11-04T10:55:12;11.18;;;6.05;;
75608;SDS011;64194;51.044;13.780;2022-11-04T10:59:46;11.32;;;5.72;;
75608;SDS011;64194;51.044;13.780;2022-11-04T11:03:51;10.45;;;4.65;;
75608;SDS011;64194;51.044;13.780;2022-11-04T11:07:55;9.50;;;5.32;;
75608;SDS011;64194;51.044;13.780;2022-11-04T11:16:25;9.27;;;4.28;;
75608;SDS011;64194;51.044;13.780;2022-11-04T11:20:27;8.75;;;4.55;;
75608;SDS011;64194;51.044;13.780;2022-11-04T11:24:32;10.65;;;5.25;;
75608;SDS011;64194;51.044;13.780;2022-11-04T11:28:35;10.50;;;5.00;;
75608;SDS011;64194;51.044;13.780;2022-11-04T11:42:12;11.85;;;5.70;;
75608;SDS011;64194;51.044;13.780;2022-11-04T11:46:28;10.52;;;4.93;;
75608;SDS011;64194;51.044;13.780;2022-11-04T12:37:30;7.18;;;3.15;;
75608;SDS011;64194;51.044;13.780;2022-11-04T12:41:48;7.03;;;3.60;;
75608;SDS011;64194;51.044;13.780;2022-11-04T12:46:20;7.25;;;4.00;;
75608;SDS011;64194;51.044;13.780;2022-11-04T12:54:40;7.15;;;3.50;;
75608;SDS011;64194;51.044;13.780;2022-11-04T13:03:23;7.70;;;3.58;;
75608;SDS011;64194;51.044;13.780;2022-11-04T13:07:53;7.97;;;4.57;;
75608;SDS011;64194;51.044;13.780;2022-11-04T13:12:00;7.78;;;4.18;;
75608;SDS011;64194;51.044;13.780;2022-11-04T13:16:08;8.18;;;4.18;;
75608;SDS011;64194;51.044;13.780;2022-11-04T13:24:21;8.38;;;4.70;;
75608;SDS011;64194;51.044;13.780;2022-11-04T13:28:32;6.43;;;3.55;;
75608;SDS011;64194;51.044;13.780;2022-11-04T13:32:37;8.18;;;4.28;;
75608;SDS011;64194;51.044;13.780;2022-11-04T13:36:51;7.95;;;4.32;;
75608;SDS011;64194;51.044;13.780;2022-11-04T13:41:48;8.77;;;4.32;;
75608;SDS011;64194;51.044;13.780;2022-11-04T13:49:52;13.10;;;6.47;;
75608;SDS011;64194;51.044;13.780;2022-11-04T13:53:58;10.32;;;5.97;;
75608;SDS011;64194;51.044;13.780;2022-11-04T13:58:00;10.52;;;5.45;;
75608;SDS011;64194;51.044;13.780;2022-11-04T14:06:12;9.95;;;5.88;;
75608;SDS011;64194;51.044;13.780;2022-11-04T14:10:35;9.77;;;5.32;;
75608;SDS011;64194;51.044;13.780;2022-11-04T14:14:41;9.77;;;5.43;;
75608;SDS011;64194;51.044;13.780;2022-11-04T14:18:52;9.52;;;5.25;;
75608;SDS011;64194;51.044;13.780;2022-11-04T14:22:55;9.02;;;4.97;;
75608;SDS011;64194;51.044;13.780;2022-11-04T14:26:58;10.70;;;6.47;;
75608;SDS011;64194;51.044;13.780;2022-11-04T14:31:04;9.23;;;5.43;;
75608;SDS011;64194;51.044;13.780;2022-11-04T14:35:16;9.88;;;5.35;;
75608;SDS011;64194;51.044;13.780;2022-11-04T14:39:20;11.77;;;6.57;;
75608;SDS011;64194;51.044;13.780;2022-11-04T14:43:31;11.13;;;5.90;;
75608;SDS011;64194;51.044;13.780;2022-11-04T14:47:35;10.13;;;6.20;;
75608;SDS011;64194;51.044;13.780;2022-11-04T14:51:39;10.88;;;6.35;;
75608;SDS011;64194;51.044;13.780;2022-11-04T14:55:41;11.27;;;5.75;;
75608;SDS011;64194;51.044;13.780;2022-11-04T14:59:43;11.73;;;5.88;;
75608;SDS011;64194;51.044;13.780;2022-11-04T15:03:46;13.25;;;6.85;;
75608;SDS011;64194;51.044;13.780;2022-11-04T15:08:27;11.65;;;6.28;;
75608;SDS011;64194;51.044;13.780;2022-11-04T15:12:32;15.18;;;7.13;;
75608;SDS011;64194;51.044;13.780;2022-11-04T15:16:53;11.32;;;6.38;;
75608;SDS011;64194;51.044;13.780;2022-11-04T15:20:58;11.50;;;5.43;;
75608;SDS011;64194;51.044;13.780;2022-11-04T15:25:03;8.77;;;4.88;;
75608;SDS011;64194;51.044;13.780;2022-11-04T15:29:07;8.60;;;4.93;;
75608;SDS011;64194;51.044;13.780;2022-11-04T15:37:17;8.50;;;3.97;;
75608;SDS011;64194;51.044;13.780;2022-11-04T15:41:20;9.30;;;5.30;;
75608;SDS011;64194;51.044;13.780;2022-11-04T15:49:50;10.35;;;6.10;;
75608;SDS011;64194;51.044;13.780;2022-11-04T15:53:57;13.32;;;6.50;;
75608;SDS011;64194;51.044;13.780;2022-11-04T16:02:19;12.02;;;6.22;;
75608;SDS011;64194;51.044;13.780;2022-11-04T16:06:38;12.88;;;6.70;;
75608;SDS011;64194;51.044;13.780;2022-11-04T16:10:42;14.27;;;6.78;;
75608;SDS011;64194;51.044;13.780;2022-11-04T16:14:48;11.25;;;7.05;;
75608;SDS011;64194;51.044;13.780;2022-11-04T16:18:52;14.93;;;7.95;;
75608;SDS011;64194;51.044;13.780;2022-11-04T16:22:57;16.95;;;7.97;;
75608;SDS011;64194;51.044;13.780;2022-11-04T16:27:00;17.00;;;7.95;;
75608;SDS011;64194;51.044;13.780;2022-11-04T16:31:22;17.88;;;7.80;;
75608;SDS011;64194;51.044;13.780;2022-11-04T16:35:26;14.70;;;7.72;;
75608;SDS011;64194;51.044;13.780;2022-11-04T16:39:31;16.63;;;8.23;;
75608;SDS011;64194;51.044;13.780;2022-11-04T16:43:32;20.27;;;10.80;;
75608;SDS011;64194;51.044;13.780;2022-11-04T16:47:35;21.55;;;10.95;;
75608;SDS011;64194;51.044;13.780;2022-11-04T16:51:40;20.23;;;9.60;;
75608;SDS011;64194;51.044;13.780;2022-11-04T16:55:42;13.50;;;7.65;;
75608;SDS011;64194;51.044;13.780;2022-11-04T16:59:47;19.05;;;8.50;;
75608;SDS011;64194;51.044;13.780;2022-11-04T17:03:48;15.85;;;8.93;;
75608;SDS011;64194;51.044;13.780;2022-11-04T17:07:50;15.15;;;8.15;;
75608;SDS011;64194;51.044;13.780;2022-11-04T17:11:56;15.00;;;8.38;;
75608;SDS011;64194;51.044;13.780;2022-11-04T17:15:58;16.10;;;7.63;;
75608;SDS011;64194;51.044;13.780;2022-11-04T17:20:00;14.70;;;7.18;;
75608;SDS011;64194;51.044;13.780;2022-11-04T17:24:02;13.77;;;7.38;;
75608;SDS011;64194;51.044;13.780;2022-11-04T17:28:04;15.05;;;7.97;;
75608;SDS011;64194;51.044;13.780;2022-11-04T17:32:07;11.55;;;6.10;;
75608;SDS011;64194;51.044;13.780;2022-11-04T17:36:16;10.23;;;6.00;;
75608;SDS011;64194;51.044;13.780;2022-11-04T17:40:19;13.32;;;6.47;;
75608;SDS011;64194;51.044;13.780;2022-11-04T17:44:24;15.60;;;7.65;;
75608;SDS011;64194;51.044;13.780;2022-11-04T17:48:41;11.32;;;6.18;;
75608;SDS011;64194;51.044;13.780;2022-11-04T17:52:42;12.90;;;6.35;;
75608;SDS011;64194;51.044;13.780;2022-11-04T17:56:45;10.98;;;6.30;;
75608;SDS011;64194;51.044;13.780;2022-11-04T18:00:47;15.02;;;7.13;;
75608;SDS011;64194;51.044;13.780;2022-11-04T18:04:48;12.10;;;6.45;;
75608;SDS011;64194;51.044;13.780;2022-11-04T18:08:51;15.98;;;6.88;;
75608;SDS011;64194;51.044;13.780;2022-11-04T18:12:54;14.30;;;7.70;;
75608;SDS011;64194;51.044;13.780;2022-11-04T18:16:56;12.63;;;6.70;;
75608;SDS011;64194;51.044;13.780;2022-11-04T18:21:02;12.25;;;7.03;;
75608;SDS011;64194;51.044;13.780;2022-11-04T18:25:06;14.52;;;6.80;;
75608;SDS011;64194;51.044;13.780;2022-11-04T18:29:08;14.15;;;6.32;;
75608;SDS011;64194;51.044;13.780;2022-11-04T18:33:10;13.30;;;6.70;;
75608;SDS011;64194;51.044;13.780;2022-11-04T18:37:12;13.75;;;7.38;;
75608;SDS011;64194;51.044;13.780;2022-11-04T18:41:15;16.65;;;8.60;;
75608;SDS011;64194;51.044;13.780;2022-11-04T18:45:16;16.05;;;8.38;;
75608;SDS011;64194;51.044;13.780;2022-11-04T18:49:18;12.88;;;7.15;;
75608;SDS011;64194;51.044;13.780;2022-11-04T18:53:20;15.40;;;7.40;;
75608;SDS011;64194;51.044;13.780;2022-11-04T18:57:27;16.60;;;8.35;;
75608;SDS011;64194;51.044;13.780;2022-11-04T19:01:32;14.48;;;7.72;;
75608;SDS011;64194;51.044;13.780;2022-11-04T19:09:41;13.68;;;6.90;;
75608;SDS011;64194;51.044;13.780;2022-11-04T19:13:49;14.40;;;7.53;;
75608;SDS011;64194;51.044;13.780;2022-11-04T19:17:54;13.38;;;6.88;;
75608;SDS011;64194;51.044;13.780;2022-11-04T19:21:56;16.30;;;7.90;;
75608;SDS011;64194;51.044;13.780;2022-11-04T19:25:58;13.90;;;6.82;;
75608;SDS011;64194;51.044;13.780;2022-11-04T19:30:05;14.95;;;7.32;;
75608;SDS011;64194;51.044;13.780;2022-11-04T19:34:07;12.77;;;7.22;;
75608;SDS011;64194;51.044;13.780;2022-11-04T19:38:09;14.05;;;7.25;;
75608;SDS011;64194;51.044;13.780;2022-11-04T19:42:11;13.90;;;7.18;;
75608;SDS011;64194;51.044;13.780;2022-11-04T19:46:32;15.05;;;7.70;;
75608;SDS011;64194;51.044;13.780;2022-11-04T19:50:41;14.82;;;7.43;;
75608;SDS011;64194;51.044;13.780;2022-11-04T19:54:45;13.30;;;7.25;;
75608;SDS011;64194;51.044;13.780;2022-11-04T19:58:47;16.42;;;7.97;;
75608;SDS011;64194;51.044;13.780;2022-11-04T20:02:49;13.43;;;6.57;;
75608;SDS011;64194;51.044;13.780;2022-11-04T20:06:51;14.80;;;7.82;;
75608;SDS011;64194;51.044;13.780;2022-11-04T20:10:53;14.77;;;6.93;;
75608;SDS011;64194;51.044;13.780;2022-11-04T20:14:55;16.38;;;8.20;;
75608;SDS011;64194;51.044;13.780;2022-11-04T20:18:58;16.58;;;6.95;;
75608;SDS011;64194;51.044;13.780;2022-11-04T20:23:01;15.65;;;7.28;;
75608;SDS011;64194;51.044;13.780;2022-11-04T20:27:03;12.82;;;7.15;;
75608;SDS011;64194;51.044;13.780;2022-11-04T20:31:09;13.40;;;6.95;;
75608;SDS011;64194;51.044;13.780;2022-11-04T20:35:12;15.10;;;6.97;;
75608;SDS011;64194;51.044;13.780;2022-11-04T20:39:15;12.98;;;7.00;;
75608;SDS011;64194;51.044;13.780;2022-11-04T20:43:18;12.95;;;6.95;;
75608;SDS011;64194;51.044;13.780;2022-11-04T20:47:20;13.48;;;7.15;;
75608;SDS011;64194;51.044;13.780;2022-11-04T20:51:23;14.55;;;7.97;;
75608;SDS011;64194;51.044;13.780;2022-11-04T20:55:29;16.30;;;7.50;;
75608;SDS011;64194;51.044;13.780;2022-11-04T20:59:31;13.27;;;7.60;;
75608;SDS011;64194;51.044;13.780;2022-11-04T21:03:32;13.55;;;7.40;;
75608;SDS011;64194;51.044;13.780;2022-11-04T21:07:34;12.75;;;6.70;;
75608;SDS011;64194;51.044;13.780;2022-11-04T21:11:37;12.90;;;7.05;;
75608;SDS011;64194;51.044;13.780;2022-11-04T21:15:40;15.10;;;7.38;;
75608;SDS011;64194;51.044;13.780;2022-11-04T21:19:41;15.00;;;7.15;;
75608;SDS011;64194;51.044;13.780;2022-11-04T21:23:43;16.77;;;7.18;;
75608;SDS011;64194;51.044;13.780;2022-11-04T21:27:46;15.65;;;6.93;;
75608;SDS011;64194;51.044;13.780;2022-11-04T21:31:48;15.27;;;7.75;;
75608;SDS011;64194;51.044;13.780;2022-11-04T21:35:49;14.90;;;7.78;;
75608;SDS011;64194;51.044;13.780;2022-11-04T21:39:51;13.88;;;7.60;;
75608;SDS011;64194;51.044;13.780;2022-11-04T21:43:56;16.27;;;7.95;;
75608;SDS011;64194;51.044;13.780;2022-11-04T21:48:00;15.27;;;8.27;;
75608;SDS011;64194;51.044;13.780;2022-11-04T21:52:01;18.20;;;8.43;;
75608;SDS011;64194;51.044;13.780;2022-11-04T22:00:16;18.95;;;8.35;;
75608;SDS011;64194;51.044;13.780;2022-11-04T22:04:18;13.15;;;7.53;;
75608;SDS011;64194;51.044;13.780;2022-11-04T22:08:19;16.25;;;7.53;;
75608;SDS011;64194;51.044;13.780;2022-11-04T22:12:21;17.38;;;7.80;;
75608;SDS011;64194;51.044;13.780;2022-11-04T22:16:24;16.92;;;8.07;;
75608;SDS011;64194;51.044;13.780;2022-11-04T22:20:27;16.85;;;7.40;;
75608;SDS011;64194;51.044;13.780;2022-11-04T22:24:29;16.75;;;7.40;;
75608;SDS011;64194;51.044;13.780;2022-11-04T22:28:31;16.52;;;8.25;;
75608;SDS011;64194;51.044;13.780;2022-11-04T22:32:32;16.10;;;8.23;;
75608;SDS011;64194;51.044;13.780;2022-11-04T22:36:34;17.17;;;8.48;;
75608;SDS011;64194;51.044;13.780;2022-11-04T22:40:36;17.80;;;9.27;;
75608;SDS011;64194;51.044;13.780;2022-11-04T22:44:37;14.25;;;7.55;;
75608;SDS011;64194;51.044;13.780;2022-11-04T22:48:39;17.67;;;8.27;;
75608;SDS011;64194;51.044;13.780;2022-11-04T22:52:41;18.83;;;8.57;;
75608;SDS011;64194;51.044;13.780;2022-11-04T22:56:42;17.38;;;9.02;;
75608;SDS011;64194;51.044;13.780;2022-11-04T23:00:45;19.58;;;8.68;;
75608;SDS011;64194;51.044;13.780;2022-11-04T23:04:46;17.17;;;9.30;;
75608;SDS011;64194;51.044;13.780;2022-11-04T23:08:48;15.65;;;8.50;;
75608;SDS011;64194;51.044;13.780;2022-11-04T23:12:49;17.10;;;8.40;;
75608;SDS011;64194;51.044;13.780;2022-11-04T23:17:17;16.63;;;8.05;;
75608;SDS011;64194;51.044;13.780;2022-11-04T23:21:40;17.25;;;8.70;;
75608;SDS011;64194;51.044;13.780;2022-11-04T23:26:00;17.38;;;9.18;;
75608;SDS011;64194;51.044;13.780;2022-11-04T23:30:06;16.38;;;8.25;;
75608;SDS011;64194;51.044;13.780;2022-11-04T23:34:21;17.65;;;9.50;;
75608;SDS011;64194;51.044;13.780;2022-11-04T23:38:41;19.98;;;9.10;;
75608;SDS011;64194;51.044;13.780;2022-11-04T23:42:50;19.00;;;8.80;;
75608;SDS011;64194;51.044;13.780;2022-11-04T23:46:51;14.70;;;8.05;;
75608;SDS011;64194;51.044;13.780;2022-11-04T23:51:12;16.15;;;8.30;;
75608;SDS011;64194;51.044;13.780;2022-11-04T23:55:32;20.20;;;9.48;;
75608;SDS011;64194;51.044;13.780;2022-11-04T23:59:53;17.90;;;9.05;;
